createdAt,value
2023-02-19T00:00:19.833Z,30.70
2023-02-19T00:02:52.720Z,30.80
2023-02-19T00:05:22.269Z,30.80
2023-02-19T00:07:51.635Z,30.80
2023-02-19T00:10:20.602Z,30.80
2023-02-19T00:12:51.200Z,30.80
2023-02-19T00:15:20.228Z,30.80
2023-02-19T00:17:49.638Z,30.80
2023-02-19T00:20:18.870Z,30.80
2023-02-19T00:22:48.087Z,30.80
2023-02-19T00:25:17.343Z,30.80
2023-02-19T00:27:49.111Z,30.80
2023-02-19T00:30:20.020Z,30.80
2023-02-19T00:32:52.724Z,30.90
2023-02-19T00:35:24.447Z,30.90
2023-02-19T00:37:53.874Z,30.80
2023-02-19T00:40:23.130Z,30.80
2023-02-19T00:42:52.236Z,30.90
2023-02-19T00:45:24.529Z,30.80
2023-02-19T00:47:56.436Z,30.90
2023-02-19T00:50:26.111Z,30.80
2023-02-19T00:52:55.388Z,30.90
2023-02-19T00:55:24.962Z,30.80
2023-02-19T00:57:54.482Z,30.80
2023-02-19T01:00:25.079Z,30.80
2023-02-19T01:02:53.980Z,30.80
2023-02-19T01:05:23.053Z,30.90
2023-02-19T01:07:52.208Z,30.80
2023-02-19T01:10:21.589Z,30.90
2023-02-19T01:12:50.543Z,30.80
2023-02-19T01:15:19.641Z,30.80
2023-02-19T01:17:50.191Z,30.80
2023-02-19T01:20:19.797Z,30.80
2023-02-19T01:22:49.067Z,30.80
2023-02-19T01:25:18.651Z,30.90
2023-02-19T01:27:47.899Z,30.90
2023-02-19T01:30:17.519Z,30.80
2023-02-19T01:32:46.901Z,30.80
2023-02-19T01:35:20.931Z,30.80
2023-02-19T01:37:49.919Z,30.90
2023-02-19T01:40:19.403Z,30.90
2023-02-19T01:42:48.649Z,30.90
2023-02-19T01:45:26.677Z,30.90
2023-02-19T01:48:09.566Z,30.90
2023-02-19T01:50:47.244Z,30.90
2023-02-19T01:53:23.393Z,30.80
2023-02-19T01:55:56.612Z,30.80
2023-02-19T01:58:27.784Z,30.80
2023-02-19T02:00:56.866Z,30.80
2023-02-19T02:03:26.581Z,30.80
2023-02-19T02:06:03.085Z,30.80
2023-02-19T02:08:50.521Z,30.80
2023-02-19T02:11:20.452Z,30.80
2023-02-19T02:13:50.043Z,30.80
2023-02-19T02:16:25.522Z,30.80
2023-02-19T02:19:04.041Z,30.80
2023-02-19T02:21:59.592Z,30.90
2023-02-19T02:25:18.615Z,30.90
2023-02-19T02:27:57.087Z,30.90
2023-02-19T02:30:35.641Z,30.90
2023-02-19T02:33:14.258Z,30.90
2023-02-19T02:35:49.805Z,30.90
2023-02-19T02:38:21.765Z,30.90
2023-02-19T02:40:50.817Z,30.90
2023-02-19T02:43:20.357Z,30.90
2023-02-19T02:45:50.941Z,30.90
2023-02-19T02:48:31.844Z,30.90
2023-02-19T02:51:05.434Z,30.90
2023-02-19T02:53:59.317Z,31.00
2023-02-19T02:56:29.093Z,30.90
2023-02-19T02:58:59.904Z,30.90
2023-02-19T03:01:51.458Z,30.90
2023-02-19T03:04:25.488Z,30.90
2023-02-19T03:06:55.386Z,30.90
2023-02-19T03:09:30.449Z,30.90
2023-02-19T03:12:21.828Z,30.90
2023-02-19T03:15:14.722Z,30.90
2023-02-19T03:18:06.388Z,30.90
2023-02-19T03:20:42.042Z,30.90
2023-02-19T03:23:12.807Z,30.90
2023-02-19T03:26:00.096Z,30.90
2023-02-19T03:28:47.484Z,31.00
2023-02-19T03:31:22.983Z,30.90
2023-02-19T03:33:57.027Z,30.90
2023-02-19T03:36:30.970Z,30.90
2023-02-19T03:39:04.535Z,30.90
2023-02-19T03:41:41.330Z,30.90
2023-02-19T03:44:18.237Z,30.80
2023-02-19T03:46:53.316Z,30.80
2023-02-19T03:49:33.648Z,30.90
2023-02-19T03:52:12.024Z,30.90
2023-02-19T03:54:53.783Z,30.90
2023-02-19T03:57:26.457Z,31.00
2023-02-19T03:59:59.608Z,30.90
2023-02-19T04:02:35.494Z,31.00
2023-02-19T04:05:14.014Z,30.90
2023-02-19T04:07:47.909Z,30.90
2023-02-19T04:10:20.608Z,30.90
2023-02-19T04:12:54.198Z,30.90
2023-02-19T04:15:28.439Z,30.90
2023-02-19T04:18:00.626Z,30.90
2023-02-19T04:20:37.270Z,30.90
2023-02-19T04:23:06.663Z,30.90
2023-02-19T04:25:37.515Z,30.90
2023-02-19T04:28:06.768Z,30.90
2023-02-19T04:30:38.297Z,30.90
2023-02-19T04:33:07.335Z,30.90
2023-02-19T04:35:38.133Z,30.90
2023-02-19T04:38:09.601Z,30.90
2023-02-19T04:40:38.533Z,30.90
2023-02-19T04:43:07.770Z,30.90
2023-02-19T04:45:40.301Z,30.90
2023-02-19T04:48:10.331Z,30.90
2023-02-19T04:50:43.105Z,30.90
2023-02-19T04:53:12.165Z,30.90
2023-02-19T04:55:41.134Z,30.90
2023-02-19T04:58:12.306Z,30.90
2023-02-19T05:00:41.532Z,31.00
2023-02-19T05:03:10.508Z,30.90
2023-02-19T05:05:39.994Z,30.90
2023-02-19T05:08:10.958Z,30.90
2023-02-19T05:10:40.216Z,30.90
2023-02-19T05:13:11.352Z,30.90
2023-02-19T05:15:40.320Z,30.90
2023-02-19T05:18:11.565Z,30.90
2023-02-19T05:20:40.636Z,30.90
2023-02-19T05:23:13.172Z,30.90
2023-02-19T05:25:42.411Z,30.90
2023-02-19T05:28:20.489Z,30.90
2023-02-19T05:30:51.875Z,31.00
2023-02-19T05:33:25.506Z,30.90
2023-02-19T05:35:56.629Z,30.90
2023-02-19T05:38:28.284Z,31.00
2023-02-19T05:40:57.541Z,30.90
2023-02-19T05:43:26.256Z,31.00
2023-02-19T05:45:59.276Z,30.90
2023-02-19T05:48:27.994Z,31.00
2023-02-19T05:51:02.594Z,31.10
2023-02-19T05:53:33.535Z,31.00
2023-02-19T05:56:06.298Z,31.10
2023-02-19T05:58:35.460Z,31.10
2023-02-19T06:01:04.545Z,31.20
2023-02-19T06:03:33.859Z,31.20
2023-02-19T06:06:05.080Z,31.20
2023-02-19T06:08:35.882Z,31.20
2023-02-19T06:11:05.830Z,31.10
2023-02-19T06:13:35.259Z,31.20
2023-02-19T06:16:06.090Z,31.20
2023-02-19T06:18:35.249Z,31.10
2023-02-19T06:21:05.393Z,31.10
2023-02-19T06:23:37.167Z,31.10
2023-02-19T06:26:09.645Z,31.00
2023-02-19T06:28:39.845Z,31.00
2023-02-19T06:31:10.551Z,31.00
2023-02-19T06:33:41.463Z,31.00
2023-02-19T06:36:14.526Z,31.00
2023-02-19T06:38:45.456Z,31.00
2023-02-19T06:41:18.328Z,30.90
2023-02-19T06:43:48.006Z,31.00
2023-02-19T06:46:20.403Z,31.00
2023-02-19T06:48:49.574Z,31.00
2023-02-19T06:51:23.829Z,31.00
2023-02-19T06:53:54.463Z,31.00
2023-02-19T06:56:26.145Z,31.00
2023-02-19T06:58:54.832Z,31.00
2023-02-19T07:01:23.904Z,31.00
2023-02-19T07:03:53.999Z,30.90
2023-02-19T07:06:24.424Z,30.90
2023-02-19T07:08:57.690Z,31.00
2023-02-19T07:11:29.080Z,31.00
2023-02-19T07:14:02.102Z,30.90
2023-02-19T07:16:31.546Z,31.00
2023-02-19T07:19:01.789Z,31.00
2023-02-19T07:21:31.186Z,31.00
2023-02-19T07:24:01.336Z,31.00
2023-02-19T07:26:29.950Z,31.00
2023-02-19T07:28:58.731Z,31.00
2023-02-19T07:31:27.903Z,31.10
2023-02-19T07:33:57.479Z,31.00
2023-02-19T07:36:27.030Z,31.00
2023-02-19T07:38:56.833Z,31.00
2023-02-19T07:41:28.497Z,30.90
2023-02-19T07:43:57.829Z,31.00
2023-02-19T07:46:27.585Z,31.00
2023-02-19T07:48:56.860Z,31.00
2023-02-19T07:51:26.560Z,30.90
2023-02-19T07:53:58.310Z,31.00
2023-02-19T07:56:30.134Z,31.00
2023-02-19T07:58:58.989Z,30.90
2023-02-19T08:01:41.795Z,31.00
2023-02-19T08:04:14.942Z,31.00
2023-02-19T08:06:44.805Z,31.00
2023-02-19T08:09:13.916Z,31.00
2023-02-19T08:12:01.456Z,31.50
2023-02-19T08:14:31.209Z,30.90
2023-02-19T08:17:00.514Z,30.90
2023-02-19T08:19:29.960Z,30.90
2023-02-19T08:21:59.460Z,30.90
2023-02-19T08:24:28.676Z,30.90
2023-02-19T08:26:59.482Z,30.90
2023-02-19T08:29:31.102Z,30.90
2023-02-19T08:32:01.018Z,30.90
2023-02-19T08:34:30.210Z,30.90
2023-02-19T08:36:59.269Z,30.90
2023-02-19T08:39:28.814Z,30.90
2023-02-19T08:42:00.062Z,30.90
2023-02-19T08:44:29.886Z,30.80
2023-02-19T08:46:59.102Z,30.80
2023-02-19T08:49:28.885Z,30.80
2023-02-19T08:51:58.515Z,30.80
2023-02-19T08:54:27.776Z,30.90
2023-02-19T08:56:57.060Z,30.90
2023-02-19T08:59:32.364Z,30.90
2023-02-19T09:02:01.611Z,30.80
2023-02-19T09:04:31.546Z,31.00
2023-02-19T09:07:01.187Z,30.90
2023-02-19T09:09:30.468Z,30.80
2023-02-19T09:12:00.194Z,30.90
2023-02-19T09:14:32.948Z,30.90
2023-02-19T09:17:02.208Z,30.80
2023-02-19T09:19:31.978Z,30.80
2023-02-19T09:22:01.258Z,30.80
2023-02-19T09:24:30.537Z,30.70
2023-02-19T09:27:03.215Z,30.70
2023-02-19T09:29:34.560Z,30.70
2023-02-19T09:32:04.026Z,30.70
2023-02-19T09:34:37.244Z,30.70
2023-02-19T09:37:06.482Z,30.70
2023-02-19T09:39:38.751Z,30.70
2023-02-19T09:42:15.580Z,30.70
2023-02-19T09:44:48.666Z,30.80
2023-02-19T09:47:21.465Z,30.80
2023-02-19T09:49:55.723Z,30.80
2023-02-19T09:52:32.563Z,30.70
2023-02-19T09:55:05.304Z,30.70
2023-02-19T09:57:38.095Z,30.80
2023-02-19T10:00:22.438Z,30.80
2023-02-19T10:02:55.212Z,30.70
2023-02-19T10:05:26.649Z,30.80
2023-02-19T10:07:57.285Z,30.80
2023-02-19T10:10:30.890Z,30.70
2023-02-19T10:13:14.404Z,30.80
2023-02-19T10:15:50.564Z,30.70
2023-02-19T10:18:25.299Z,30.80
2023-02-19T10:20:54.771Z,30.70
2023-02-19T10:23:25.288Z,30.80
2023-02-19T10:25:57.361Z,30.70
2023-02-19T10:28:30.624Z,31.00
2023-02-19T10:31:04.045Z,30.70
2023-02-19T10:33:32.934Z,31.30
2023-02-19T10:36:06.888Z,30.70
2023-02-19T10:38:38.996Z,31.40
2023-02-19T10:41:10.284Z,30.70
2023-02-19T10:43:42.410Z,30.70
2023-02-19T10:46:20.251Z,30.70
2023-02-19T10:48:53.564Z,30.70
2023-02-19T10:51:25.701Z,30.70
2023-02-19T10:54:06.530Z,30.70
2023-02-19T10:56:38.812Z,30.60
2023-02-19T10:59:25.280Z,30.60
2023-02-19T11:02:04.142Z,30.60
2023-02-19T11:04:36.688Z,30.60
2023-02-19T11:07:10.942Z,30.60
2023-02-19T11:09:42.758Z,30.60
2023-02-19T11:12:14.492Z,30.60
2023-02-19T11:14:46.157Z,30.60
2023-02-19T11:17:25.463Z,31.20
2023-02-19T11:19:57.127Z,30.70
2023-02-19T11:22:34.837Z,30.60
2023-02-19T11:25:08.724Z,30.60
2023-02-19T11:27:54.682Z,30.60
2023-02-19T11:30:40.460Z,30.60
2023-02-19T11:33:29.269Z,30.60
2023-02-19T11:36:27.231Z,30.60
2023-02-19T11:39:01.078Z,30.60
2023-02-19T11:41:49.428Z,30.60
2023-02-19T11:44:30.582Z,30.50
2023-02-19T11:47:37.697Z,30.50
2023-02-19T11:50:18.008Z,30.50
2023-02-19T11:52:57.824Z,30.50
2023-02-19T11:55:39.964Z,30.50
2023-02-19T11:58:25.794Z,30.50
2023-02-19T12:01:02.467Z,30.50
2023-02-19T12:03:52.059Z,30.50
2023-02-19T12:06:28.837Z,30.50
2023-02-19T12:09:27.436Z,30.50
2023-02-19T12:12:32.326Z,30.50
2023-02-19T12:15:21.458Z,30.50
2023-02-19T12:18:10.514Z,30.60
2023-02-19T12:20:45.818Z,30.50
2023-02-19T12:23:39.604Z,30.50
2023-02-19T12:26:20.136Z,31.10
2023-02-19T12:29:13.496Z,30.50
2023-02-19T12:32:10.146Z,30.50
2023-02-19T12:35:06.629Z,30.40
2023-02-19T12:37:45.530Z,30.50
2023-02-19T12:40:35.020Z,30.50
2023-02-19T12:43:17.009Z,30.50
2023-02-19T12:45:52.511Z,30.50
2023-02-19T12:48:31.463Z,30.50
2023-02-19T12:51:05.886Z,30.50
2023-02-19T12:53:43.388Z,30.50
2023-02-19T12:56:19.097Z,30.50
2023-02-19T12:58:52.358Z,30.50
2023-02-19T13:01:27.421Z,30.50
2023-02-19T13:04:15.748Z,30.50
2023-02-19T13:06:51.707Z,30.50
2023-02-19T13:09:24.896Z,30.60
2023-02-19T13:12:00.733Z,30.60
2023-02-19T13:14:36.074Z,30.60
2023-02-19T13:17:14.811Z,30.60
2023-02-19T13:19:44.962Z,30.60
2023-02-19T13:22:41.555Z,30.70
2023-02-19T13:25:13.644Z,30.70
2023-02-19T13:28:06.647Z,30.70
2023-02-19T13:30:47.351Z,30.60
2023-02-19T13:33:27.773Z,30.70
2023-02-19T13:36:08.486Z,30.70
2023-02-19T13:38:41.459Z,30.60
2023-02-19T13:41:21.756Z,30.60
2023-02-19T13:44:00.098Z,30.60
2023-02-19T13:46:38.240Z,30.60
2023-02-19T13:49:45.952Z,30.60
2023-02-19T13:52:44.897Z,30.60
2023-02-19T13:55:51.766Z,30.60
2023-02-19T13:59:01.735Z,30.60
2023-02-19T14:02:17.821Z,30.70
2023-02-19T14:04:51.996Z,30.60
2023-02-19T14:08:02.293Z,30.60
2023-02-19T14:11:05.242Z,30.60
2023-02-19T14:14:06.765Z,30.60
2023-02-19T14:16:56.586Z,30.50
2023-02-19T14:20:01.533Z,30.50
2023-02-19T14:23:10.108Z,30.50
2023-02-19T14:25:53.839Z,30.60
2023-02-19T14:28:36.493Z,30.50
2023-02-19T14:31:17.824Z,30.50
2023-02-19T14:33:49.861Z,30.50
2023-02-19T14:36:29.189Z,30.60
2023-02-19T14:39:03.417Z,30.60
2023-02-19T14:41:35.413Z,30.60
2023-02-19T14:44:05.668Z,30.70
2023-02-19T14:46:41.113Z,30.60
2023-02-19T14:49:17.609Z,30.60
2023-02-19T14:51:51.639Z,30.60
2023-02-19T14:54:40.501Z,30.70
2023-02-19T14:57:16.671Z,30.70
2023-02-19T14:59:55.594Z,30.60
2023-02-19T15:02:28.752Z,30.60
2023-02-19T15:04:58.435Z,30.70
2023-02-19T15:07:31.801Z,30.60
2023-02-19T15:10:05.822Z,30.70
2023-02-19T15:12:37.320Z,30.70
2023-02-19T15:15:07.967Z,30.70
2023-02-19T15:17:42.328Z,30.70
2023-02-19T15:20:16.635Z,30.70
2023-02-19T15:22:46.392Z,30.70
2023-02-19T15:25:20.989Z,30.70
2023-02-19T15:27:50.255Z,30.80
2023-02-19T15:30:28.648Z,30.70
2023-02-19T15:32:59.331Z,30.80
2023-02-19T15:35:30.299Z,30.70
2023-02-19T15:37:59.673Z,30.80
2023-02-19T15:40:32.955Z,30.80
2023-02-19T15:43:02.647Z,30.80
2023-02-19T15:45:37.922Z,30.70
2023-02-19T15:48:13.287Z,30.80
2023-02-19T15:50:49.082Z,31.40
2023-02-19T15:53:21.766Z,30.70
2023-02-19T15:56:02.096Z,31.00
2023-02-19T15:58:33.637Z,30.80
2023-02-19T16:01:05.150Z,30.80
2023-02-19T16:03:34.681Z,30.80
2023-02-19T16:06:05.959Z,30.80
2023-02-19T16:08:36.667Z,30.80
2023-02-19T16:11:09.592Z,30.80
2023-02-19T16:13:39.033Z,30.90
2023-02-19T16:16:17.372Z,30.90
2023-02-19T16:18:48.544Z,30.80
2023-02-19T16:21:21.976Z,30.90
2023-02-19T16:23:54.961Z,30.90
2023-02-19T16:26:26.011Z,30.90
2023-02-19T16:28:56.282Z,30.90
2023-02-19T16:31:26.111Z,30.90
2023-02-19T16:33:55.110Z,30.90
2023-02-19T16:36:30.048Z,30.90
2023-02-19T16:39:23.575Z,30.90
2023-02-19T16:42:20.994Z,30.90
2023-02-19T16:44:52.422Z,30.90
2023-02-19T16:47:35.979Z,30.90
2023-02-19T16:50:13.334Z,30.90
2023-02-19T16:52:53.737Z,30.90
2023-02-19T16:55:23.472Z,30.90
2023-02-19T16:57:56.759Z,30.90
2023-02-19T17:00:28.001Z,30.90
2023-02-19T17:02:58.781Z,30.90
2023-02-19T17:05:30.473Z,30.90
2023-02-19T17:08:02.025Z,30.90
2023-02-19T17:10:30.911Z,30.80
2023-02-19T17:13:01.579Z,30.90
2023-02-19T17:15:30.795Z,30.90
2023-02-19T17:17:59.711Z,30.90
2023-02-19T17:20:31.592Z,30.90
2023-02-19T17:23:00.723Z,30.90
2023-02-19T17:25:30.038Z,30.90
2023-02-19T17:28:00.818Z,30.90
2023-02-19T17:30:31.618Z,30.90
2023-02-19T17:33:00.839Z,31.60
2023-02-19T17:35:29.867Z,31.00
2023-02-19T17:38:01.254Z,31.00
2023-02-19T17:40:33.711Z,31.10
2023-02-19T17:43:04.603Z,31.00
2023-02-19T17:45:36.272Z,31.00
2023-02-19T17:48:05.348Z,31.00
2023-02-19T17:50:34.504Z,30.90
2023-02-19T17:53:03.620Z,30.90
2023-02-19T17:55:33.915Z,31.00
2023-02-19T17:58:06.779Z,31.00
2023-02-19T18:00:39.347Z,30.90
2023-02-19T18:03:08.430Z,31.10
2023-02-19T18:05:37.350Z,31.00
2023-02-19T18:08:06.326Z,31.00
2023-02-19T18:10:36.115Z,31.00
2023-02-19T18:13:06.786Z,30.90
2023-02-19T18:15:35.889Z,30.90
2023-02-19T18:18:05.214Z,30.90
2023-02-19T18:20:33.975Z,30.90
2023-02-19T18:23:03.083Z,31.00
2023-02-19T18:25:32.224Z,31.00
2023-02-19T18:28:01.482Z,31.00
2023-02-19T18:30:32.439Z,31.00
2023-02-19T18:33:01.603Z,31.00
2023-02-19T18:35:30.143Z,31.00
2023-02-19T18:37:59.245Z,31.00
2023-02-19T18:40:28.704Z,30.90
2023-02-19T18:42:58.821Z,31.00
2023-02-19T18:45:29.832Z,30.90
2023-02-19T18:48:00.495Z,30.90
2023-02-19T18:50:33.616Z,30.90
2023-02-19T18:53:02.540Z,30.80
2023-02-19T18:55:31.785Z,30.90
2023-02-19T18:58:01.155Z,30.90
2023-02-19T19:00:30.289Z,31.00
2023-02-19T19:03:01.236Z,30.90
2023-02-19T19:05:30.564Z,30.90
2023-02-19T19:08:02.047Z,31.10
2023-02-19T19:10:34.184Z,30.90
2023-02-19T19:13:03.058Z,30.90
2023-02-19T19:15:32.225Z,31.00
2023-02-19T19:18:02.993Z,30.90
2023-02-19T19:20:31.873Z,30.90
2023-02-19T19:23:05.154Z,30.90
2023-02-19T19:25:34.436Z,30.90
2023-02-19T19:28:03.863Z,30.90
2023-02-19T19:30:33.940Z,30.90
2023-02-19T19:33:04.399Z,30.90
2023-02-19T19:35:33.676Z,30.90
2023-02-19T19:38:02.923Z,31.00
2023-02-19T19:40:32.118Z,30.90
2023-02-19T19:43:01.376Z,30.90
2023-02-19T19:45:30.724Z,30.90
2023-02-19T19:47:59.908Z,30.90
2023-02-19T19:50:30.702Z,30.90
2023-02-19T19:52:59.946Z,30.90
2023-02-19T19:55:29.200Z,30.90
2023-02-19T19:57:58.123Z,30.90
2023-02-19T20:00:27.540Z,31.00
2023-02-19T20:02:56.901Z,30.90
2023-02-19T20:05:26.245Z,30.90
2023-02-19T20:07:57.334Z,30.90
2023-02-19T20:10:26.690Z,30.90
2023-02-19T20:12:55.505Z,30.90
2023-02-19T20:15:25.147Z,30.90
2023-02-19T20:17:54.428Z,30.90
2023-02-19T20:20:23.816Z,31.00
2023-02-19T20:22:53.366Z,30.90
2023-02-19T20:25:26.645Z,31.00
2023-02-19T20:27:56.267Z,31.00
2023-02-19T20:30:26.317Z,30.90
2023-02-19T20:32:57.942Z,30.90
2023-02-19T20:35:29.034Z,31.00
2023-02-19T20:37:59.154Z,31.00
2023-02-19T20:40:31.531Z,30.90
2023-02-19T20:43:01.691Z,31.00
2023-02-19T20:45:31.157Z,31.00
2023-02-19T20:48:00.524Z,31.00
2023-02-19T20:50:29.926Z,31.00
2023-02-19T20:52:59.040Z,31.00
2023-02-19T20:55:29.321Z,31.00
2023-02-19T20:57:58.359Z,31.00
2023-02-19T21:00:28.097Z,31.00
2023-02-19T21:02:57.776Z,31.00
2023-02-19T21:05:29.285Z,31.00
2023-02-19T21:07:58.442Z,31.00
2023-02-19T21:10:28.970Z,31.00
2023-02-19T21:12:58.442Z,31.00
2023-02-19T21:15:27.421Z,31.00
2023-02-19T21:17:56.449Z,31.00
2023-02-19T21:20:25.369Z,31.00
2023-02-19T21:22:54.597Z,31.00
2023-02-19T21:25:23.645Z,31.00
2023-02-19T21:27:54.258Z,31.00
2023-02-19T21:30:23.744Z,31.00
2023-02-19T21:32:52.723Z,31.00
2023-02-19T21:35:21.716Z,31.00
2023-02-19T21:37:51.061Z,31.00
2023-02-19T21:40:22.277Z,31.00
2023-02-19T21:42:51.316Z,31.00
2023-02-19T21:45:21.960Z,31.00
2023-02-19T21:47:52.338Z,31.00
2023-02-19T21:50:21.401Z,31.00
2023-02-19T21:52:50.403Z,31.10
2023-02-19T21:55:19.311Z,31.00
2023-02-19T21:57:48.457Z,31.00
2023-02-19T22:00:18.009Z,31.00
2023-02-19T22:02:48.312Z,31.00
2023-02-19T22:05:19.357Z,31.00
2023-02-19T22:07:50.425Z,31.00
2023-02-19T22:10:19.905Z,31.10
2023-02-19T22:12:49.268Z,31.00
2023-02-19T22:15:18.693Z,31.00
2023-02-19T22:17:48.965Z,31.00
2023-02-19T22:20:19.919Z,31.10
2023-02-19T22:22:51.830Z,31.10
2023-02-19T22:25:20.989Z,31.10
2023-02-19T22:27:52.217Z,31.10
2023-02-19T22:30:21.654Z,31.20
2023-02-19T22:32:52.113Z,31.10
2023-02-19T22:35:21.502Z,31.10
2023-02-19T22:37:50.839Z,31.10
2023-02-19T22:40:20.509Z,31.10
2023-02-19T22:42:49.795Z,31.20
2023-02-19T22:45:19.059Z,31.10
2023-02-19T22:47:48.327Z,31.20
2023-02-19T22:50:23.480Z,31.10
2023-02-19T22:52:55.001Z,31.10
2023-02-19T22:55:24.502Z,31.10
2023-02-19T22:57:53.901Z,31.20
2023-02-19T23:00:23.712Z,31.20
2023-02-19T23:02:52.527Z,31.10
2023-02-19T23:05:24.818Z,31.10
2023-02-19T23:07:54.108Z,31.10
2023-02-19T23:10:23.357Z,31.10
2023-02-19T23:12:52.176Z,31.10
2023-02-19T23:15:21.647Z,31.10
2023-02-19T23:17:52.180Z,31.10
2023-02-19T23:20:22.642Z,31.10
2023-02-19T23:22:51.571Z,31.20
2023-02-19T23:25:20.707Z,31.20
2023-02-19T23:27:49.807Z,31.10
2023-02-19T23:30:22.708Z,31.10
2023-02-19T23:32:52.833Z,31.10
2023-02-19T23:35:23.766Z,31.20
2023-02-19T23:37:53.559Z,31.10
2023-02-19T23:40:23.323Z,31.10
2023-02-19T23:42:53.557Z,31.10
2023-02-19T23:45:23.029Z,31.10
2023-02-19T23:47:52.581Z,31.10
2023-02-19T23:50:24.038Z,31.10
2023-02-19T23:52:53.297Z,31.20
2023-02-19T23:55:22.861Z,31.20
2023-02-19T23:57:53.455Z,31.10
